Time;durP1;ratioP1;P1;durP2;ratioP2;P2;SDS_P1;SDS_P2;PMS_P1;PMS_P2;Temp;Humidity;BMP_temperature;BMP_pressure;BME280_temperature;BME280_humidity;BME280_pressure;Samples;Min_cycle;Max_cycle;Signal;HPM_P1;HPM_P2
2022/05/08 00:02:21;;;;;;;13.82;9.75;;;12.80;99.90;;;;;;5090678;28;20020;-45
2022/05/08 00:04:50;;;;;;;16.95;10.65;;;12.80;99.90;;;;;;5091621;28;20016;-45
2022/05/08 00:07:17;;;;;;;18.92;10.88;;;12.80;99.90;;;;;;5087544;28;20016;-45
2022/05/08 00:09:43;;;;;;;17.00;11.45;;;12.70;99.90;;;;;;5083970;28;20111;-46
2022/05/08 00:12:11;;;;;;;22.27;11.32;;;12.60;99.90;;;;;;5090816;28;20024;-46
2022/05/08 00:14:46;;;;;;;14.52;9.70;;;12.50;99.90;;;;;;5091675;28;20028;-46
2022/05/08 00:17:14;;;;;;;19.20;11.13;;;12.50;99.90;;;;;;5091122;28;20031;-46
2022/05/08 00:19:44;;;;;;;17.60;11.05;;;12.50;99.90;;;;;;5091461;28;20028;-45
2022/05/08 00:22:11;;;;;;;18.98;9.98;;;12.50;99.90;;;;;;5089248;28;20035;-46
2022/05/08 00:24:37;;;;;;;17.10;10.35;;;12.50;99.90;;;;;;5091503;28;20457;-46
2022/05/08 00:27:03;;;;;;;15.98;10.77;;;12.50;99.90;;;;;;5091118;28;20024;-46
2022/05/08 00:29:29;;;;;;;25.83;10.68;;;12.50;99.90;;;;;;5089931;28;20281;-46
2022/05/08 00:31:54;;;;;;;21.23;10.98;;;12.50;99.90;;;;;;5090201;28;20032;-47
2022/05/08 00:34:20;;;;;;;18.67;10.40;;;12.40;99.90;;;;;;5089800;28;20068;-47
2022/05/08 00:36:45;;;;;;;15.43;10.07;;;12.40;99.90;;;;;;5084775;28;20032;-46
2022/05/08 00:39:11;;;;;;;23.58;10.35;;;12.40;99.90;;;;;;5082469;28;20035;-46
2022/05/08 00:41:36;;;;;;;23.33;10.90;;;12.30;99.90;;;;;;5090665;28;20020;-47
2022/05/08 00:44:03;;;;;;;23.38;11.25;;;12.30;99.90;;;;;;5090685;28;20101;-47
2022/05/08 00:46:29;;;;;;;14.25;10.07;;;12.30;99.90;;;;;;5082826;28;20028;-46
2022/05/08 00:48:55;;;;;;;16.95;10.38;;;12.30;99.90;;;;;;5085034;28;20028;-47
2022/05/08 00:51:21;;;;;;;21.40;9.93;;;12.30;99.90;;;;;;5090942;28;20028;-47
2022/05/08 00:53:50;;;;;;;23.65;11.57;;;12.30;99.90;;;;;;5085332;28;20020;-47
2022/05/08 00:56:17;;;;;;;19.40;10.38;;;12.20;99.90;;;;;;5081978;28;20036;-47
2022/05/08 00:58:46;;;;;;;18.33;9.80;;;12.30;99.90;;;;;;5090120;28;20036;-48
2022/05/08 01:01:11;;;;;;;17.77;10.48;;;12.30;99.90;;;;;;5089917;28;20537;-46
2022/05/08 01:03:38;;;;;;;16.48;9.18;;;12.20;99.90;;;;;;5078926;28;20103;-49
2022/05/08 01:06:09;;;;;;;18.02;10.52;;;12.30;99.90;;;;;;5086051;28;20069;-46
2022/05/08 01:08:39;;;;;;;18.88;9.98;;;12.20;99.90;;;;;;5090401;28;20035;-48
2022/05/08 01:11:07;;;;;;;20.45;11.18;;;12.20;99.90;;;;;;5090433;28;20024;-47
2022/05/08 01:13:33;;;;;;;20.27;9.93;;;12.20;99.90;;;;;;5089721;28;20035;-47
2022/05/08 01:15:59;;;;;;;21.05;10.70;;;12.10;99.90;;;;;;5090140;28;20028;-47
2022/05/08 01:18:25;;;;;;;20.58;10.02;;;12.10;99.90;;;;;;5090388;28;20043;-46
2022/05/08 01:20:50;;;;;;;18.52;10.20;;;12.10;99.90;;;;;;5090478;28;20110;-48
2022/05/08 01:23:18;;;;;;;22.58;9.82;;;12.10;99.90;;;;;;5090158;28;20095;-46
2022/05/08 01:25:52;;;;;;;24.30;11.63;;;12.00;99.90;;;;;;5090385;28;20078;-46
2022/05/08 01:28:18;;;;;;;22.83;9.38;;;12.00;99.90;;;;;;5090140;28;20069;-46
2022/05/08 01:30:46;;;;;;;18.52;8.70;;;11.90;99.90;;;;;;5089717;28;20027;-48
2022/05/08 01:33:12;;;;;;;23.27;10.32;;;11.90;99.90;;;;;;5083397;28;20058;-47
2022/05/08 01:35:38;;;;;;;19.25;9.63;;;11.90;99.90;;;;;;5081804;28;20059;-46
2022/05/08 01:38:05;;;;;;;21.27;9.35;;;11.90;99.90;;;;;;5088365;28;20119;-45
2022/05/08 01:40:31;;;;;;;20.92;8.68;;;11.90;99.90;;;;;;5089534;28;20424;-47
2022/05/08 01:42:57;;;;;;;24.63;9.20;;;11.80;99.90;;;;;;5089048;28;20020;-46
2022/05/08 01:45:23;;;;;;;20.98;9.13;;;11.70;99.90;;;;;;5089726;28;20020;-46
2022/05/08 01:50:34;;;;;;;23.35;9.50;;;11.60;99.90;;;;;;5089750;28;20059;-49
2022/05/08 01:52:59;;;;;;;25.20;8.40;;;11.50;99.90;;;;;;5088907;28;20505;-46
2022/05/08 01:55:25;;;;;;;18.92;8.80;;;11.50;99.90;;;;;;5089913;28;20020;-46
2022/05/08 01:57:50;;;;;;;22.05;8.90;;;11.40;99.90;;;;;;5089634;28;20099;-48
2022/05/08 02:00:16;;;;;;;23.33;8.50;;;11.20;99.90;;;;;;5089320;28;20462;-46
2022/05/08 02:02:44;;;;;;;23.80;7.97;;;11.10;99.90;;;;;;5082572;28;20020;-46
2022/05/08 02:05:10;;;;;;;20.33;7.43;;;11.10;99.90;;;;;;5080684;28;20137;-46
2022/05/08 02:07:35;;;;;;;16.95;6.90;;;11.00;99.90;;;;;;5089361;28;20085;-46
2022/05/08 02:10:01;;;;;;;27.67;8.70;;;11.00;99.90;;;;;;5089257;28;20119;-46
2022/05/08 02:12:27;;;;;;;30.13;7.90;;;10.90;99.90;;;;;;5088535;28;20032;-46
2022/05/08 02:14:52;;;;;;;21.42;6.78;;;10.90;99.90;;;;;;5089164;28;20436;-46
2022/05/08 02:17:18;;;;;;;19.88;7.60;;;10.80;99.90;;;;;;5089550;28;20519;-46
2022/05/08 02:19:44;;;;;;;23.85;7.72;;;10.90;99.90;;;;;;5089333;28;20081;-45
2022/05/08 02:22:11;;;;;;;24.58;6.95;;;10.80;99.90;;;;;;5088266;28;20024;-46
2022/05/08 02:24:36;;;;;;;25.20;6.68;;;10.80;99.90;;;;;;5089288;28;20020;-47
2022/05/08 02:27:02;;;;;;;20.33;6.47;;;10.80;99.90;;;;;;5088973;28;20024;-46
2022/05/08 02:29:27;;;;;;;19.83;7.10;;;10.80;99.90;;;;;;5088898;28;20035;-46
2022/05/08 02:31:53;;;;;;;21.13;6.93;;;10.80;99.90;;;;;;5087022;28;20111;-46
2022/05/08 02:34:18;;;;;;;17.75;6.88;;;10.80;99.90;;;;;;5072964;28;20033;-38
2022/05/08 02:36:44;;;;;;;21.60;6.78;;;10.70;99.90;;;;;;5061683;28;20486;-47
2022/05/08 02:39:09;;;;;;;16.33;6.03;;;10.70;99.90;;;;;;5057500;28;20036;-46
2022/05/08 02:41:35;;;;;;;22.10;6.35;;;10.70;99.90;;;;;;5058407;28;20020;-46
2022/05/08 02:44:00;;;;;;;18.88;6.20;;;10.60;99.90;;;;;;5058408;28;20471;-46
2022/05/08 02:46:26;;;;;;;22.17;7.13;;;10.60;99.90;;;;;;5057269;28;20351;-47
2022/05/08 02:48:51;;;;;;;19.35;6.00;;;10.70;99.90;;;;;;5059560;28;20304;-38
2022/05/08 02:51:17;;;;;;;29.70;6.82;;;10.70;99.90;;;;;;5053803;28;20025;-38
2022/05/08 02:53:42;;;;;;;26.80;7.20;;;10.60;99.90;;;;;;5058783;28;20155;-38
2022/05/08 02:58:52;;;;;;;22.00;6.00;;;10.50;99.90;;;;;;5059948;28;20493;-38
2022/05/08 03:01:17;;;;;;;14.65;5.43;;;10.40;99.90;;;;;;5058477;28;20025;-38
2022/05/08 03:03:43;;;;;;;34.35;6.22;;;10.40;99.90;;;;;;5065671;28;20567;-38
2022/05/08 03:06:08;;;;;;;24.08;5.22;;;10.30;99.90;;;;;;5054740;28;20029;-38
2022/05/08 03:08:34;;;;;;;24.95;5.65;;;10.20;99.90;;;;;;5051381;28;20501;-38
2022/05/08 03:13:44;;;;;;;19.40;5.72;;;10.20;99.90;;;;;;5049299;28;20040;-47
2022/05/08 03:16:11;;;;;;;28.85;7.65;;;10.20;99.90;;;;;;5058126;28;20028;-46
2022/05/08 03:18:39;;;;;;;28.35;6.65;;;10.10;99.90;;;;;;5060756;28;20656;-47
2022/05/08 03:21:05;;;;;;;23.42;6.30;;;10.10;99.90;;;;;;5059332;28;20355;-45
2022/05/08 03:23:31;;;;;;;17.17;5.40;;;10.00;99.90;;;;;;5060344;28;20017;-38
2022/05/08 03:25:57;;;;;;;19.88;5.72;;;10.00;99.90;;;;;;5060219;28;20236;-45
2022/05/08 03:28:23;;;;;;;20.85;5.97;;;10.00;99.90;;;;;;5060575;28;20095;-38
2022/05/08 03:30:49;;;;;;;20.10;5.85;;;10.00;99.90;;;;;;5061827;28;20028;-49
2022/05/08 03:33:15;;;;;;;28.48;6.60;;;10.00;99.90;;;;;;5063327;28;20378;-46
2022/05/08 03:35:41;;;;;;;21.48;5.65;;;10.00;99.90;;;;;;5065764;28;21583;-46
2022/05/08 03:38:07;;;;;;;22.23;5.32;;;10.00;99.90;;;;;;5060486;28;20013;-38
2022/05/08 03:40:34;;;;;;;33.13;6.47;;;9.90;99.90;;;;;;5061335;28;20023;-38
2022/05/08 03:43:00;;;;;;;20.92;5.22;;;9.90;99.90;;;;;;5061669;28;20402;-38
2022/05/08 03:45:27;;;;;;;23.25;5.00;;;9.90;99.90;;;;;;5060284;28;20532;-38
2022/05/08 03:47:53;;;;;;;20.20;6.00;;;9.90;99.90;;;;;;5062926;28;20037;-45
2022/05/08 03:50:22;;;;;;;31.70;5.65;;;9.90;99.90;;;;;;5056435;28;20024;-38
2022/05/08 03:52:48;;;;;;;27.45;5.95;;;9.90;99.90;;;;;;5055728;28;20048;-38
2022/05/08 03:55:18;;;;;;;20.33;4.97;;;9.80;99.90;;;;;;5058813;28;20492;-38
2022/05/08 03:57:44;;;;;;;15.68;4.82;;;9.80;99.90;;;;;;5060442;28;20024;-38
2022/05/08 04:00:11;;;;;;;18.73;5.53;;;9.80;99.90;;;;;;5059002;28;20465;-38
2022/05/08 04:02:36;;;;;;;26.38;5.38;;;9.80;99.90;;;;;;5063589;28;20027;-38
2022/05/08 04:05:03;;;;;;;23.98;5.43;;;9.70;99.90;;;;;;5079669;28;20028;-38
2022/05/08 04:07:29;;;;;;;19.45;5.03;;;9.70;99.90;;;;;;5071379;28;20058;-38
2022/05/08 04:09:55;;;;;;;15.82;4.82;;;9.60;99.90;;;;;;5071221;28;20032;-38
2022/05/08 04:12:20;;;;;;;21.48;5.28;;;9.60;99.90;;;;;;5070464;28;20078;-38
2022/05/08 04:14:46;;;;;;;23.85;5.60;;;9.70;99.90;;;;;;5071500;28;20056;-38
2022/05/08 04:17:16;;;;;;;20.20;4.35;;;9.60;99.90;;;;;;5069836;28;20422;-38
2022/05/08 04:19:42;;;;;;;17.75;3.97;;;9.60;99.90;;;;;;5071075;28;20028;-38
2022/05/08 04:24:53;;;;;;;26.30;5.55;;;9.60;99.90;;;;;;5070880;28;20070;-38
2022/05/08 04:27:19;;;;;;;22.10;5.95;;;9.60;99.90;;;;;;5070755;28;20036;-38
2022/05/08 04:29:45;;;;;;;21.48;4.10;;;9.50;99.90;;;;;;5070841;28;20036;-38
2022/05/08 04:32:11;;;;;;;13.35;4.43;;;9.40;99.90;;;;;;5067304;28;20029;-38
2022/05/08 04:34:36;;;;;;;19.40;4.88;;;9.40;99.90;;;;;;5082452;28;20016;-37
2022/05/08 04:37:03;;;;;;;17.83;4.85;;;9.30;99.90;;;;;;5090928;28;20031;-38
2022/05/08 04:39:29;;;;;;;16.85;5.22;;;9.30;99.90;;;;;;5079039;28;20550;-38
2022/05/08 04:41:54;;;;;;;21.00;5.47;;;9.30;99.90;;;;;;5081602;28;20112;-38
2022/05/08 04:44:20;;;;;;;20.65;4.75;;;9.30;99.90;;;;;;5090765;28;20027;-38
2022/05/08 04:46:46;;;;;;;20.30;5.60;;;9.20;99.90;;;;;;5090489;28;20015;-38
2022/05/08 04:49:11;;;;;;;19.60;5.00;;;9.10;99.90;;;;;;5090759;28;20020;-38
2022/05/08 04:51:37;;;;;;;28.05;5.32;;;9.10;99.90;;;;;;5090321;28;20024;-38
2022/05/08 04:54:02;;;;;;;17.73;4.95;;;9.10;99.90;;;;;;5090833;28;20254;-38
2022/05/08 04:56:29;;;;;;;15.55;4.35;;;9.00;99.90;;;;;;5090575;28;20107;-38
2022/05/08 04:58:55;;;;;;;22.15;5.10;;;9.00;99.90;;;;;;5090689;28;20416;-38
2022/05/08 05:01:21;;;;;;;15.90;4.60;;;9.00;99.90;;;;;;5090184;28;20115;-38
2022/05/08 05:03:47;;;;;;;18.75;4.28;;;8.80;99.90;;;;;;5089870;28;20068;-38
2022/05/08 05:06:13;;;;;;;19.00;4.55;;;8.90;99.90;;;;;;5084173;28;20383;-38
2022/05/08 05:08:38;;;;;;;14.43;4.50;;;8.90;99.90;;;;;;5081615;28;20498;-38
2022/05/08 05:11:08;;;;;;;13.15;4.30;;;8.80;99.90;;;;;;5090458;28;20408;-38
2022/05/08 05:13:34;;;;;;;19.90;4.35;;;8.90;99.90;;;;;;5089633;28;20020;-38
2022/05/08 05:15:59;;;;;;;19.73;4.72;;;8.90;99.90;;;;;;5089613;28;20034;-38
2022/05/08 05:18:25;;;;;;;24.85;5.68;;;8.90;99.90;;;;;;5090413;28;20028;-38
2022/05/08 05:20:50;;;;;;;20.02;4.75;;;8.90;99.90;;;;;;5072589;28;20028;-38
2022/05/08 05:23:16;;;;;;;21.88;5.32;;;8.90;99.90;;;;;;5081007;28;20031;-38
2022/05/08 05:25:41;;;;;;;18.20;4.75;;;9.00;99.90;;;;;;5090299;28;20027;-38
2022/05/08 05:28:07;;;;;;;15.20;4.70;;;8.90;99.90;;;;;;5090020;28;20052;-38
2022/05/08 05:30:32;;;;;;;14.48;4.15;;;8.90;99.90;;;;;;5090036;28;20024;-38
2022/05/08 05:32:58;;;;;;;27.77;5.43;;;9.00;99.90;;;;;;5088918;28;20028;-38
2022/05/08 05:35:23;;;;;;;23.73;4.82;;;9.00;99.90;;;;;;5089718;28;20032;-38
2022/05/08 05:37:49;;;;;;;15.55;4.32;;;9.00;99.90;;;;;;5089583;28;20032;-38
2022/05/08 05:40:14;;;;;;;19.15;4.63;;;8.90;99.90;;;;;;5089726;28;20028;-38
2022/05/08 05:42:40;;;;;;;20.10;5.05;;;9.00;99.90;;;;;;5088880;28;20028;-38
2022/05/08 05:45:06;;;;;;;18.52;4.45;;;9.00;99.90;;;;;;5089710;28;20031;-38
2022/05/08 05:47:50;;;;;;;20.73;5.25;;;8.90;99.90;;;;;;5075818;28;20073;-38
2022/05/08 05:50:23;;;;;;;27.02;4.68;;;8.90;99.90;;;;;;5080996;28;20050;-38
2022/05/08 05:52:50;;;;;;;22.25;4.22;;;8.90;99.90;;;;;;5078562;28;20036;-38
2022/05/08 05:55:16;;;;;;;24.25;5.50;;;8.90;99.90;;;;;;5067913;28;20036;-38
2022/05/08 05:57:43;;;;;;;17.23;4.70;;;8.90;99.90;;;;;;5053736;28;20032;-38
2022/05/08 06:00:11;;;;;;;18.60;4.97;;;9.00;99.90;;;;;;5052424;28;20321;-38
2022/05/08 06:02:37;;;;;;;20.77;4.03;;;9.10;99.90;;;;;;5046938;28;20044;-38
2022/05/08 06:05:06;;;;;;;21.17;4.55;;;9.10;99.90;;;;;;5049597;28;20021;-38
2022/05/08 06:07:32;;;;;;;13.60;4.00;;;9.00;99.90;;;;;;5049060;28;20391;-38
2022/05/08 06:09:58;;;;;;;16.98;4.80;;;9.00;99.90;;;;;;5047451;28;20590;-38
2022/05/08 06:12:24;;;;;;;15.65;4.03;;;9.10;99.90;;;;;;5048246;28;20160;-38
2022/05/08 06:14:49;;;;;;;14.00;4.05;;;9.10;99.90;;;;;;5047526;28;20025;-38
2022/05/08 06:17:14;;;;;;;24.63;4.50;;;9.20;99.90;;;;;;5048755;28;20033;-38
2022/05/08 06:19:41;;;;;;;19.63;4.22;;;9.20;99.90;;;;;;5080519;28;20058;-38
2022/05/08 06:22:07;;;;;;;12.45;3.75;;;9.30;99.90;;;;;;5060331;28;20513;-38
2022/05/08 06:24:34;;;;;;;22.40;4.93;;;9.30;99.90;;;;;;5057725;28;20104;-38
2022/05/08 06:27:00;;;;;;;20.75;4.05;;;9.20;99.90;;;;;;5056472;28;20052;-38
2022/05/08 06:29:25;;;;;;;18.27;4.40;;;9.40;99.90;;;;;;5056153;28;20051;-36
2022/05/08 06:31:51;;;;;;;21.60;3.67;;;9.40;99.90;;;;;;5055872;28;20033;-39
2022/05/08 06:34:18;;;;;;;17.05;4.15;;;9.40;99.90;;;;;;5063816;28;20444;-37
2022/05/08 06:36:44;;;;;;;20.95;4.35;;;9.40;99.90;;;;;;5059153;28;20112;-36
2022/05/08 06:39:09;;;;;;;19.30;4.15;;;9.50;99.90;;;;;;5058525;28;20056;-37
2022/05/08 06:41:36;;;;;;;22.13;4.75;;;9.60;99.90;;;;;;5075822;28;20052;-36
2022/05/08 06:44:02;;;;;;;26.63;4.80;;;9.50;99.90;;;;;;5066683;28;20021;-36
2022/05/08 06:46:31;;;;;;;12.13;3.47;;;9.70;99.90;;;;;;5064460;28;20021;-36
2022/05/08 06:48:57;;;;;;;23.50;4.45;;;9.70;99.90;;;;;;5060536;28;20104;-36
2022/05/08 06:51:22;;;;;;;16.48;4.10;;;9.70;99.90;;;;;;5076879;28;20287;-37
2022/05/08 06:53:49;;;;;;;17.08;3.70;;;9.90;99.90;;;;;;5076933;28;20029;-36
2022/05/08 06:56:16;;;;;;;20.80;3.97;;;9.90;99.90;;;;;;5067889;28;20031;-36
2022/05/08 07:01:35;;;;;;;18.15;4.00;;;10.10;99.90;;;;;;5061075;28;20086;-36
2022/05/08 07:04:07;;;;;;;11.35;3.47;;;10.30;99.90;;;;;;5057480;28;20013;-36
2022/05/08 07:06:32;;;;;;;20.92;4.18;;;10.30;99.90;;;;;;5059682;28;20020;-37
2022/05/08 07:08:58;;;;;;;16.13;3.75;;;10.30;99.90;;;;;;5059150;28;20497;-37
2022/05/08 07:11:25;;;;;;;15.95;3.80;;;10.30;99.90;;;;;;5059475;28;20146;-37
2022/05/08 07:13:50;;;;;;;10.63;2.95;;;10.40;99.90;;;;;;5058871;28;20036;-36
2022/05/08 07:16:16;;;;;;;17.42;3.25;;;10.60;99.90;;;;;;5057810;28;20025;-37
2022/05/08 07:18:41;;;;;;;15.93;3.67;;;10.60;99.90;;;;;;5059819;28;20029;-37
2022/05/08 07:21:08;;;;;;;12.68;3.05;;;10.80;99.90;;;;;;5055925;28;20086;-37
2022/05/08 07:23:33;;;;;;;17.60;4.75;;;10.90;99.90;;;;;;5056319;28;20036;-37
2022/05/08 07:25:59;;;;;;;28.02;3.97;;;11.00;99.90;;;;;;5057566;28;20021;-37
2022/05/08 07:28:27;;;;;;;11.13;4.53;;;11.20;99.90;;;;;;5056602;28;20108;-36
2022/05/08 07:30:53;;;;;;;18.25;3.33;;;11.20;99.90;;;;;;5062742;28;20088;-37
2022/05/08 07:33:19;;;;;;;11.48;3.45;;;11.10;99.90;;;;;;5060161;28;20035;-37
2022/05/08 07:38:31;;;;;;;18.88;3.95;;;11.40;99.90;;;;;;5050597;28;20036;-37
2022/05/08 07:40:57;;;;;;;12.77;4.03;;;11.60;99.90;;;;;;5051129;28;20017;-41
2022/05/08 07:43:26;;;;;;;14.10;3.45;;;11.70;99.90;;;;;;5069066;28;20056;-37
2022/05/08 07:45:52;;;;;;;15.98;3.40;;;11.80;99.90;;;;;;5085798;28;20016;-38
2022/05/08 07:48:18;;;;;;;12.80;3.50;;;12.00;99.90;;;;;;5083100;28;20040;-38
2022/05/08 07:50:45;;;;;;;15.00;3.03;;;12.20;99.90;;;;;;5084342;28;20031;-37
2022/05/08 07:53:12;;;;;;;13.68;3.17;;;12.50;99.40;;;;;;5086468;28;20102;-37
2022/05/08 07:55:38;;;;;;;9.63;3.10;;;12.60;99.30;;;;;;5083686;28;20023;-37
2022/05/08 07:58:03;;;;;;;12.27;3.45;;;12.80;98.90;;;;;;5087129;28;20012;-37
2022/05/08 08:00:29;;;;;;;10.00;2.80;;;13.00;98.30;;;;;;5081510;28;20397;-37
2022/05/08 08:02:54;;;;;;;11.38;3.00;;;13.20;96.70;;;;;;5090489;28;20036;-37
2022/05/08 08:05:20;;;;;;;14.80;3.88;;;13.20;95.50;;;;;;5090986;28;20101;-37
2022/05/08 08:07:46;;;;;;;6.50;2.22;;;13.40;96.40;;;;;;5070716;28;20494;-37
2022/05/08 08:10:12;;;;;;;11.50;3.03;;;13.60;95.50;;;;;;5088330;28;20056;-37
2022/05/08 08:12:37;;;;;;;9.75;2.25;;;13.70;92.30;;;;;;5074766;28;20096;-38
2022/05/08 08:15:04;;;;;;;7.80;2.38;;;13.80;92.40;;;;;;5082901;28;20024;-38
2022/05/08 08:17:30;;;;;;;13.23;2.13;;;13.80;91.80;;;;;;5087901;28;20977;-38
2022/05/08 08:19:56;;;;;;;7.60;2.47;;;14.10;90.50;;;;;;5082557;28;20055;-38
2022/05/08 08:22:21;;;;;;;7.75;2.40;;;14.50;90.50;;;;;;5088369;28;20063;-38
2022/05/08 08:24:48;;;;;;;7.95;2.70;;;14.70;90.10;;;;;;5071944;28;20044;-38
2022/05/08 08:27:16;;;;;;;10.43;2.88;;;15.20;88.20;;;;;;5086702;28;20028;-39
2022/05/08 08:29:41;;;;;;;10.02;2.97;;;16.10;87.20;;;;;;5074750;28;20397;-39
2022/05/08 08:32:07;;;;;;;6.45;2.42;;;17.20;81.40;;;;;;5086233;28;20050;-39
2022/05/08 08:34:34;;;;;;;7.88;2.65;;;18.50;72.70;;;;;;5076741;28;20069;-39
2022/05/08 08:37:00;;;;;;;5.97;2.13;;;20.10;67.60;;;;;;5082204;28;20095;-37
2022/05/08 08:39:25;;;;;;;6.97;2.63;;;21.30;63.00;;;;;;5077849;28;20117;-37
2022/05/08 08:42:11;;;;;;;5.15;2.17;;;22.70;55.20;;;;;;5081359;28;20032;-38
2022/05/08 08:50:07;;;;;;;7.97;2.38;;;25.10;46.10;;;;;;5081960;28;20031;-37
2022/05/08 08:52:35;;;;;;;4.55;2.30;;;25.20;46.70;;;;;;5081130;28;20029;-37
2022/05/08 08:55:00;;;;;;;8.25;2.22;;;25.40;46.70;;;;;;5087111;28;20035;-38
2022/05/08 08:57:26;;;;;;;5.35;2.40;;;25.80;45.50;;;;;;5068073;28;20025;-38
2022/05/08 08:59:51;;;;;;;8.70;2.33;;;26.30;45.60;;;;;;5062022;28;20032;-37
2022/05/08 09:02:18;;;;;;;6.70;2.55;;;26.60;43.30;;;;;;5083368;28;20020;-38
2022/05/08 09:04:45;;;;;;;7.95;2.92;;;26.80;43.40;;;;;;5081738;28;20573;-38
2022/05/08 09:07:39;;;;;;;8.00;2.40;;;27.30;40.30;;;;;;5072397;28;20021;-39
2022/05/08 09:10:10;;;;;;;6.68;2.70;;;27.40;39.30;;;;;;5075648;28;20048;-38
2022/05/08 09:12:38;;;;;;;5.70;2.10;;;27.40;41.10;;;;;;5069589;28;20277;-38
2022/05/08 09:15:23;;;;;;;8.43;2.42;;;27.50;38.80;;;;;;5084078;28;20395;-38
2022/05/08 09:18:00;;;;;;;6.85;2.33;;;26.30;41.70;;;;;;5070262;28;20020;-38
2022/05/08 09:20:32;;;;;;;4.53;1.75;;;26.80;40.50;;;;;;5069003;28;20043;-37
2022/05/08 09:23:13;;;;;;;5.68;1.88;;;27.30;41.00;;;;;;5080261;28;20060;-37
2022/05/08 09:25:51;;;;;;;5.28;2.33;;;27.90;38.60;;;;;;5081308;28;20028;-39
2022/05/08 09:28:30;;;;;;;4.72;1.90;;;28.40;38.20;;;;;;5076240;28;20050;-38
2022/05/08 09:30:57;;;;;;;;;;;28.20;37.20;;;;;;5075965;28;20145;-38
2022/05/08 09:33:23;;;;;;;7.80;2.50;;;28.00;37.80;;;;;;5075762;28;19911;-37
2022/05/08 09:35:48;;;;;;;4.72;1.98;;;28.20;39.70;;;;;;5080777;28;20029;-38
2022/05/08 09:38:14;;;;;;;7.50;2.58;;;28.40;38.50;;;;;;5075464;28;20024;-38
2022/05/08 09:40:39;;;;;;;4.90;2.28;;;29.00;39.30;;;;;;5083965;28;20555;-39
2022/05/08 09:43:05;;;;;;;6.80;2.28;;;28.50;39.90;;;;;;5072896;28;20107;-38
2022/05/08 09:45:31;;;;;;;7.32;2.90;;;28.80;38.10;;;;;;5087053;28;20016;-38
2022/05/08 09:47:57;;;;;;;6.45;2.58;;;28.40;38.30;;;;;;5072342;28;20033;-38
2022/05/08 09:50:23;;;;;;;6.97;2.25;;;28.30;38.00;;;;;;5087927;28;20097;-39
2022/05/08 09:52:48;;;;;;;6.47;2.22;;;28.90;38.60;;;;;;5077242;28;20080;-38
2022/05/08 09:55:15;;;;;;;5.45;1.58;;;29.60;36.40;;;;;;5086283;28;20485;-38
2022/05/08 09:57:40;;;;;;;4.88;2.15;;;29.70;36.40;;;;;;5079832;28;20025;-38
2022/05/08 10:00:08;;;;;;;5.53;2.40;;;30.40;35.50;;;;;;5085374;28;20088;-38
2022/05/08 10:02:35;;;;;;;4.80;2.08;;;30.20;35.90;;;;;;5071218;28;20016;-38
2022/05/08 10:05:01;;;;;;;3.78;1.80;;;30.10;36.80;;;;;;5080462;28;20055;-38
2022/05/08 10:07:27;;;;;;;6.90;2.78;;;30.40;37.20;;;;;;5076966;28;20060;-38
2022/05/08 10:15:29;;;;;;;5.68;1.98;;;30.10;36.10;;;;;;5079399;28;20259;-38
2022/05/08 10:18:24;;;;;;;5.45;2.35;;;30.50;35.00;;;;;;5084481;28;20115;-38
2022/05/08 10:21:06;;;;;;;6.82;2.40;;;29.70;37.20;;;;;;5074963;28;20464;-38
2022/05/08 10:23:42;;;;;;;9.32;2.72;;;30.00;35.80;;;;;;5082280;28;20486;-38
2022/05/08 10:26:21;;;;;;;5.07;2.33;;;29.90;36.60;;;;;;5084953;28;20031;-38
2022/05/08 10:29:01;;;;;;;6.43;2.10;;;30.20;36.40;;;;;;5072844;28;20027;-38
2022/05/08 10:31:59;;;;;;;8.98;2.65;;;31.00;35.00;;;;;;5080051;28;20024;-38
2022/05/08 10:34:34;;;;;;;6.88;2.22;;;30.20;34.70;;;;;;5070501;28;20044;-38
2022/05/08 10:37:14;;;;;;;7.57;2.50;;;30.10;36.50;;;;;;5084007;28;20485;-38
2022/05/08 10:39:43;;;;;;;8.07;2.30;;;29.90;36.30;;;;;;5072097;28;20255;-38
2022/05/08 10:42:26;;;;;;;7.95;2.65;;;30.30;36.60;;;;;;5084421;28;20154;-38
2022/05/08 10:44:52;;;;;;;7.28;2.63;;;30.30;36.80;;;;;;5070916;28;20390;-38
2022/05/08 10:47:42;;;;;;;6.95;2.70;;;30.10;36.70;;;;;;5086372;28;20031;-38
2022/05/08 10:50:13;;;;;;;6.30;2.20;;;30.70;34.70;;;;;;5087421;28;20024;-38
2022/05/08 10:52:40;;;;;;;6.32;2.42;;;30.40;37.10;;;;;;5075197;28;20638;-38
2022/05/08 10:55:08;;;;;;;5.60;2.22;;;30.50;36.30;;;;;;5084707;28;20031;-38
2022/05/08 10:57:35;;;;;;;7.25;2.35;;;30.30;37.10;;;;;;5077473;28;20551;-38
2022/05/08 11:00:09;;;;;;;2.75;1.80;;;30.40;36.30;;;;;;5083984;28;20474;-38
2022/05/08 11:02:45;;;;;;;3.72;1.88;;;30.50;35.90;;;;;;5077333;28;20091;-38
2022/05/08 11:05:13;;;;;;;6.10;1.98;;;30.40;35.80;;;;;;5085384;28;20016;-38
2022/05/08 11:07:40;;;;;;;8.40;2.05;;;30.20;34.10;;;;;;5073541;28;20023;-38
2022/05/08 11:10:16;;;;;;;4.45;2.17;;;30.10;35.80;;;;;;5080048;28;20489;-38
2022/05/08 11:13:02;;;;;;;7.72;2.28;;;29.90;34.30;;;;;;5073002;28;20071;-38
2022/05/08 11:15:34;;;;;;;6.43;2.22;;;29.80;34.80;;;;;;5082208;28;20028;-40
2022/05/08 11:18:07;;;;;;;4.90;2.00;;;30.00;35.60;;;;;;5078964;28;20107;-38
2022/05/08 11:20:37;;;;;;;5.97;2.20;;;30.20;36.80;;;;;;5084008;28;20200;-38
2022/05/08 11:23:06;;;;;;;5.15;1.73;;;30.20;33.70;;;;;;5078716;28;20028;-38
2022/05/08 11:25:33;;;;;;;7.93;2.55;;;30.40;35.60;;;;;;5083781;28;20016;-38
2022/05/08 11:27:59;;;;;;;4.55;2.25;;;30.70;34.80;;;;;;5080008;28;20496;-38
2022/05/08 11:30:29;;;;;;;6.50;2.40;;;30.30;33.50;;;;;;5083600;28;20070;-38
2022/05/08 11:38:50;;;;;;;5.72;2.15;;;30.10;32.10;;;;;;5071536;28;20799;-45
2022/05/08 11:41:21;;;;;;;5.90;1.60;;;29.60;34.70;;;;;;5089523;28;20035;-45
2022/05/08 11:43:47;;;;;;;8.18;2.63;;;29.60;33.00;;;;;;5078963;28;20474;-45
2022/05/08 11:46:16;;;;;;;7.05;2.45;;;29.20;34.70;;;;;;5088985;28;20020;-44
2022/05/08 11:48:43;;;;;;;4.38;1.88;;;29.90;36.30;;;;;;5079191;28;20012;-46
2022/05/08 11:51:13;;;;;;;5.63;2.35;;;29.40;35.60;;;;;;5083623;28;20031;-45
2022/05/08 11:53:42;;;;;;;8.60;2.35;;;29.50;35.30;;;;;;5087337;28;20066;-48
2022/05/08 11:56:40;;;;;;;5.95;2.10;;;29.30;35.40;;;;;;5083468;28;20067;-44
2022/05/08 11:59:15;;;;;;;9.15;2.15;;;28.60;35.30;;;;;;5081501;28;20035;-45
2022/05/08 12:01:48;;;;;;;9.02;2.55;;;28.30;36.00;;;;;;5072327;28;20029;-45
2022/05/08 12:04:22;;;;;;;6.97;1.92;;;27.90;36.20;;;;;;5071419;28;20025;-45
2022/05/08 12:07:07;;;;;;;8.40;2.20;;;26.80;36.30;;;;;;5073433;28;20024;-44
2022/05/08 12:09:39;;;;;;;4.22;1.75;;;26.60;37.60;;;;;;5091163;28;20060;-45
2022/05/08 12:12:29;;;;;;;9.02;2.30;;;25.50;38.60;;;;;;5080999;28;20028;-45
2022/05/08 12:14:59;;;;;;;;;;;25.60;39.30;;;;;;5050373;28;20029;-44
2022/05/08 12:17:50;;;;;;;4.07;2.30;;;25.40;37.00;;;;;;5069690;28;19908;-45
2022/05/08 12:20:28;;;;;;;8.20;2.15;;;25.20;39.90;;;;;;5088741;28;20020;-44
2022/05/08 12:23:01;;;;;;;5.25;1.85;;;25.30;40.80;;;;;;5077343;28;20043;-47
2022/05/08 12:25:27;;;;;;;8.75;2.35;;;25.20;38.30;;;;;;5081440;28;20027;-44
2022/05/08 12:27:53;;;;;;;3.45;1.70;;;24.80;36.00;;;;;;5086853;28;20021;-45
2022/05/08 12:30:19;;;;;;;5.38;1.80;;;24.60;37.40;;;;;;5082674;28;20024;-44
2022/05/08 12:32:45;;;;;;;5.97;1.95;;;24.80;40.30;;;;;;5086953;28;20030;-44
2022/05/08 12:35:11;;;;;;;6.97;2.20;;;24.90;40.30;;;;;;5082518;28;20465;-44
2022/05/08 12:37:40;;;;;;;9.27;1.90;;;24.70;37.20;;;;;;5081917;28;20021;-45
2022/05/08 12:40:07;;;;;;;5.85;1.98;;;24.60;39.70;;;;;;5074971;28;20024;-37
2022/05/08 12:42:32;;;;;;;6.55;2.13;;;24.70;38.60;;;;;;5084213;28;20028;-37
2022/05/08 12:44:58;;;;;;;5.90;1.80;;;24.40;39.30;;;;;;5073835;28;20496;-37
2022/05/08 12:47:24;;;;;;;7.35;2.42;;;24.30;40.00;;;;;;5085569;28;20521;-37
2022/05/08 12:49:50;;;;;;;5.18;1.95;;;24.30;39.10;;;;;;5072578;28;20021;-37
2022/05/08 12:52:16;;;;;;;6.13;1.88;;;24.20;37.50;;;;;;5087199;28;20030;-37
2022/05/08 12:54:42;;;;;;;5.45;1.95;;;24.10;38.10;;;;;;5071956;28;20086;-37
2022/05/08 12:57:09;;;;;;;7.82;2.15;;;24.30;39.40;;;;;;5086634;28;20489;-37
2022/05/08 12:59:47;;;;;;;5.90;1.98;;;24.30;38.90;;;;;;5073547;28;20029;-37
2022/05/08 13:02:14;;;;;;;5.25;2.28;;;24.30;40.10;;;;;;5086910;28;20028;-37
2022/05/08 13:04:41;;;;;;;4.70;1.75;;;24.40;38.50;;;;;;5077154;28;20398;-37
2022/05/08 13:07:08;;;;;;;6.25;1.85;;;24.20;39.10;;;;;;5086928;28;20031;-37
2022/05/08 13:09:34;;;;;;;3.72;2.05;;;24.20;38.80;;;;;;5081206;28;20028;-37
2022/05/08 13:12:02;;;;;;;5.35;1.83;;;24.50;39.10;;;;;;5084960;28;20027;-37
2022/05/08 13:14:29;;;;;;;4.78;2.15;;;24.60;37.70;;;;;;5074344;28;20063;-37
2022/05/08 13:16:59;;;;;;;4.75;1.50;;;24.30;38.20;;;;;;5081924;28;20024;-38
2022/05/08 13:19:27;;;;;;;4.53;1.80;;;24.60;37.10;;;;;;5090137;28;20066;-37
2022/05/08 13:21:53;;;;;;;6.82;1.80;;;24.30;37.20;;;;;;5088556;28;20107;-37